Terminal Aerodrome Forecast
Issued by NWS Blacksburg, VA

Current Version | Previous Version | Graphics & Text | Print | Product List | Glossary On
Versions: 1 2 3 4 5 6 7 8 9 10 11 12 13 14 15 16 17 18 19 20 21 22 23 24
293
FTUS41 KRNK 261740 AAB
TAFBLF
TAF AMD
KBLF 261740Z 2618/2718 17012KT P6SM SCT008 BKN030
     FM262200 17010KT P6SM VCSH SCT020 BKN045
     FM270000 17009KT 6SM -SHRA SCT020 OVC035
     FM270600 19005KT P6SM BKN050=

USA.gov is the U.S. government's official web portal to all federal, state and local government web resources and services.